Time;durP1;ratioP1;P1;durP2;ratioP2;P2;SDS_P1;SDS_P2;PMS_P1;PMS_P2;Temp;Humidity;BMP_temperature;BMP_pressure;BME280_temperature;BME280_humidity;BME280_pressure;Samples;Min_cycle;Max_cycle;Signal;HPM_P1;HPM_P2
2021/09/27 00:00:18;;;;;;;0.20;0.20;;;;;;;19.39;61.76;101219.59;682921;28;24237;-68
2021/09/27 00:00:42;;;;;;;0.20;0.20;;;;;;;19.39;61.78;101220.44;680271;28;92386;-66
2021/09/27 00:01:08;;;;;;;0.20;0.20;;;;;;;19.39;61.68;101214.13;681585;28;58026;-68
2021/09/27 00:01:31;;;;;;;0.20;0.20;;;;;;;19.39;61.74;101220.44;679052;28;137888;-68
2021/09/27 00:01:53;;;;;;;0.20;0.20;;;;;;;19.38;61.59;101212.44;682150;28;44398;-68
2021/09/27 00:02:14;;;;;;;0.20;0.20;;;;;;;19.37;61.62;101219.84;681880;28;46351;-69
2021/09/27 00:02:35;;;;;;;0.20;0.20;;;;;;;19.37;61.77;101221.72;682707;28;21654;-68
2021/09/27 00:02:56;;;;;;;0.20;0.20;;;;;;;19.36;61.77;101217.31;682614;28;22404;-68
2021/09/27 00:03:18;;;;;;;0.20;0.20;;;;;;;19.37;61.78;101218.97;682623;28;21529;-68
2021/09/27 00:03:40;;;;;;;0.20;0.20;;;;;;;19.37;61.89;101216.22;682111;28;44392;-68
2021/09/27 00:04:01;;;;;;;0.20;0.20;;;;;;;19.37;61.75;101222.56;681649;28;46498;-66
2021/09/27 00:04:22;;;;;;;0.20;0.20;;;;;;;19.38;61.83;101217.91;683039;28;21527;-68
2021/09/27 00:04:44;;;;;;;0.20;0.20;;;;;;;19.37;61.82;101217.09;683120;28;23492;-68
2021/09/27 00:05:08;;;;;;;0.20;0.20;;;;;;;19.39;61.84;101216.88;681773;28;45363;-69
2021/09/27 00:05:30;;;;;;;0.20;0.20;;;;;;;19.39;61.80;101214.97;680395;28;90536;-68
2021/09/27 00:05:51;;;;;;;0.20;0.20;;;;;;;19.40;61.80;101215.78;681693;28;43945;-68
2021/09/27 00:06:15;;;;;;;0.20;0.20;;;;;;;19.38;61.61;101216.00;682879;28;21427;-68
2021/09/27 00:06:36;;;;;;;0.20;0.20;;;;;;;19.39;61.78;101217.69;680453;28;91627;-68
2021/09/27 00:06:57;;;;;;;0.20;0.20;;;;;;;19.39;61.87;101214.13;682937;28;22273;-68
2021/09/27 00:07:19;;;;;;;0.20;0.20;;;;;;;19.39;61.78;101222.34;682347;28;22430;-68
2021/09/27 00:07:41;;;;;;;0.20;0.20;;;;;;;19.39;61.74;101217.69;682209;28;21467;-68
2021/09/27 00:08:02;;;;;;;0.20;0.20;;;;;;;19.40;61.78;101215.78;682182;28;46314;-68
2021/09/27 00:08:24;;;;;;;0.20;0.20;;;;;;;19.40;61.86;101216.66;681834;28;46376;-68
2021/09/27 00:08:46;;;;;;;0.20;0.20;;;;;;;19.39;61.65;101216.88;682925;28;20924;-68
2021/09/27 00:09:07;;;;;;;0.20;0.20;;;;;;;19.38;61.63;101215.19;681998;28;45260;-68
2021/09/27 00:09:32;;;;;;;0.20;0.20;;;;;;;19.39;61.79;101222.34;682922;28;23453;-69
2021/09/27 00:09:54;;;;;;;0.20;0.20;;;;;;;19.39;61.71;101220.44;678626;28;138043;-68
2021/09/27 00:10:19;;;;;;;0.20;0.20;;;;;;;19.37;61.67;101217.09;679564;29;24316;-68
2021/09/27 00:10:43;;;;;;;0.20;0.20;;;;;;;19.38;61.69;101215.19;676476;28;115399;-68
2021/09/27 00:11:07;;;;;;;0.20;0.20;;;;;;;19.35;61.77;101219.19;676931;29;112256;-68
2021/09/27 00:11:29;;;;;;;0.20;0.20;;;;;;;19.34;61.76;101213.94;678077;28;90184;-68
2021/09/27 00:11:50;;;;;;;0.20;0.20;;;;;;;19.34;61.70;101217.53;679583;28;46361;-68
2021/09/27 00:12:11;;;;;;;0.20;0.20;;;;;;;19.34;61.83;101211.19;679997;28;22770;-68
2021/09/27 00:12:42;;;;;;;0.20;0.20;;;;;;;19.32;61.76;101216.91;677849;28;98642;-68
2021/09/27 00:13:05;;;;;;;0.20;0.20;;;;;;;19.32;61.84;101218.81;680003;29;21427;-68
2021/09/27 00:13:32;;;;;;;0.15;0.15;;;;;;;19.32;61.83;101210.59;678822;28;69487;-68
2021/09/27 00:13:54;;;;;;;0.20;0.20;;;;;;;19.32;61.84;101216.91;674974;28;160947;-68
2021/09/27 00:14:16;;;;;;;0.20;0.20;;;;;;;19.27;61.82;101212.09;681444;28;66896;-68
2021/09/27 00:14:38;;;;;;;0.20;0.20;;;;;;;19.31;61.77;101214.38;681748;28;46336;-68
2021/09/27 00:14:59;;;;;;;0.17;0.17;;;;;;;19.31;61.90;101222.59;681559;28;42721;-68
2021/09/27 00:15:24;;;;;;;0.20;0.20;;;;;;;19.28;61.89;101218.44;682909;28;24456;-69
2021/09/27 00:15:49;;;;;;;0.20;0.20;;;;;;;19.30;61.79;101218.22;679693;28;115185;-68
2021/09/27 00:16:12;;;;;;;0.20;0.20;;;;;;;19.27;61.88;101222.22;680944;28;89987;-68
2021/09/27 00:16:33;;;;;;;0.20;0.20;;;;;;;19.29;61.91;101219.25;682155;28;67532;-68
2021/09/27 00:16:54;;;;;;;0.20;0.20;;;;;;;19.29;62.04;101225.56;683137;28;23475;-68
2021/09/27 00:17:15;;;;;;;0.20;0.20;;;;;;;19.29;62.01;101217.34;682294;28;46310;-68
2021/09/27 00:17:37;;;;;;;0.20;0.20;;;;;;;19.29;61.92;101219.25;683305;28;22420;-69
2021/09/27 00:17:58;;;;;;;0.20;0.20;;;;;;;19.29;62.00;101219.25;682589;28;44428;-68
2021/09/27 00:18:20;;;;;;;0.20;0.20;;;;;;;19.30;61.98;101224.50;683561;28;22397;-68
2021/09/27 00:18:42;;;;;;;0.20;0.20;;;;;;;19.30;62.01;101223.69;682843;28;46345;-68
2021/09/27 00:19:04;;;;;;;0.20;0.20;;;;;;;19.30;61.94;101223.69;682354;28;44410;-68
2021/09/27 00:19:25;;;;;;;0.10;0.10;;;;;;;19.30;61.97;101219.03;683571;28;22409;-68
2021/09/27 00:19:46;;;;;;;0.20;0.20;;;;;;;19.30;61.92;101219.03;683195;28;21559;-69
2021/09/27 00:20:09;;;;;;;0.20;0.20;;;;;;;19.28;62.13;101221.16;682901;28;23512;-68
2021/09/27 00:20:31;;;;;;;0.20;0.20;;;;;;;19.28;61.97;101226.66;681818;28;69472;-68
2021/09/27 00:20:54;;;;;;;0.20;0.20;;;;;;;19.27;61.90;101220.31;682238;28;46372;-68
2021/09/27 00:21:19;;;;;;;0.20;0.20;;;;;;;19.27;62.04;101225.78;681859;28;66932;-68
2021/09/27 00:21:40;;;;;;;0.20;0.20;;;;;;;19.29;61.98;101224.72;680257;28;115251;-68
2021/09/27 00:22:01;;;;;;;0.17;0.17;;;;;;;19.28;61.96;101223.91;684007;28;943;-68
2021/09/27 00:22:23;;;;;;;0.20;0.20;;;;;;;19.26;61.80;101218.66;682733;28;22506;-68
2021/09/27 00:22:45;;;;;;;0.20;0.20;;;;;;;19.27;61.93;101219.47;683670;28;22381;-68
2021/09/27 00:23:07;;;;;;;0.20;0.20;;;;;;;19.27;62.01;101219.47;682064;28;67588;-68
2021/09/27 00:23:31;;;;;;;0.20;0.20;;;;;;;19.27;62.03;101220.31;682581;28;45228;-68
2021/09/27 00:23:52;;;;;;;0.20;0.20;;;;;;;19.27;62.06;101217.56;681007;28;92329;-68
2021/09/27 00:24:14;;;;;;;0.20;0.20;;;;;;;19.27;61.93;101220.31;679364;29;46483;-68
2021/09/27 00:24:35;;;;;;;0.20;0.20;;;;;;;19.28;62.01;101218.44;679562;29;45287;-68
2021/09/27 00:24:57;;;;;;;0.20;0.20;;;;;;;19.29;61.95;101225.56;680333;28;22409;-68
2021/09/27 00:25:20;;;;;;;0.10;0.10;;;;;;;19.27;62.07;101225.78;680380;28;23450;-68
2021/09/27 00:25:43;;;;;;;0.20;0.20;;;;;;;19.26;62.02;101226.88;677672;28;93014;-68
2021/09/27 00:26:05;;;;;;;0.10;0.10;;;;;;;19.25;62.01;101227.09;680766;28;45312;-69
2021/09/27 00:26:27;;;;;;;0.20;0.20;;;;;;;19.23;62.17;101230.06;682677;28;47338;-68
2021/09/27 00:26:49;;;;;;;0.20;0.20;;;;;;;19.23;62.15;101229.19;678929;28;68507;-68
2021/09/27 00:27:11;;;;;;;0.20;0.20;;;;;;;19.22;62.08;101227.53;679414;28;45192;-68
2021/09/27 00:27:32;;;;;;;0.20;0.20;;;;;;;19.21;62.11;101226.69;680736;28;21534;-68
2021/09/27 00:27:54;;;;;;;0.10;0.10;;;;;;;19.22;62.19;101230.28;680308;28;23702;-66
2021/09/27 00:28:16;;;;;;;0.20;0.20;;;;;;;19.19;62.17;101226.06;679684;28;46311;-68
2021/09/27 00:28:37;;;;;;;0.20;0.20;;;;;;;19.19;62.27;101227.97;679972;29;46525;-68
2021/09/27 00:28:58;;;;;;;0.20;0.20;;;;;;;19.19;62.31;101228.81;683271;28;22646;-67
2021/09/27 00:29:20;;;;;;;0.20;0.20;;;;;;;19.19;62.32;101228.81;680913;28;21770;-68
2021/09/27 00:29:41;;;;;;;0.20;0.20;;;;;;;19.19;62.39;101225.25;680327;28;46335;-68
2021/09/27 00:30:04;;;;;;;0.20;0.20;;;;;;;19.18;62.46;101229.84;679282;28;46313;-68
2021/09/27 00:30:25;;;;;;;0.20;0.20;;;;;;;19.17;62.30;101224.59;677362;29;42711;-68
2021/09/27 00:30:48;;;;;;;0.20;0.20;;;;;;;19.16;62.33;101226.50;677415;29;22320;-68
2021/09/27 00:31:11;;;;;;;0.20;0.20;;;;;;;19.16;62.43;101217.47;677586;29;69215;-68
2021/09/27 00:31:32;;;;;;;0.20;0.20;;;;;;;19.16;62.29;101226.50;680267;28;67342;-68
2021/09/27 00:31:53;;;;;;;0.20;0.20;;;;;;;19.16;62.34;101233.91;682053;28;23445;-68
2021/09/27 00:32:15;;;;;;;0.20;0.20;;;;;;;19.16;62.35;101229.25;681625;28;23275;-68
2021/09/27 00:32:36;;;;;;;0.20;0.20;;;;;;;19.16;62.31;101222.94;681911;28;45252;-68
2021/09/27 00:32:58;;;;;;;0.20;0.20;;;;;;;19.13;62.27;101226.13;683480;28;21530;-68
2021/09/27 00:33:20;;;;;;;0.20;0.20;;;;;;;19.13;62.35;101221.47;683481;28;22393;-68
2021/09/27 00:33:43;;;;;;;0.20;0.20;;;;;;;19.11;62.46;101220.00;681992;28;69407;-68
2021/09/27 00:34:05;;;;;;;0.20;0.20;;;;;;;19.13;62.51;101223.38;682419;28;46552;-68
2021/09/27 00:34:26;;;;;;;0.20;0.20;;;;;;;19.11;62.64;101220.00;682704;28;44409;-68
2021/09/27 00:34:47;;;;;;;0.20;0.20;;;;;;;19.09;62.49;101225.75;683412;28;21352;-68
2021/09/27 00:35:10;;;;;;;0.20;0.20;;;;;;;19.08;62.67;101224.88;682737;28;22187;-68
2021/09/27 00:35:34;;;;;;;0.20;0.20;;;;;;;19.03;62.56;101213.78;681225;28;92149;-68
2021/09/27 00:35:55;;;;;;;0.20;0.20;;;;;;;19.02;62.62;101214.81;680958;28;90792;-68
2021/09/27 00:36:17;;;;;;;0.20;0.20;;;;;;;19.04;62.63;101220.06;682930;28;23455;-67
2021/09/27 00:36:39;;;;;;;0.20;0.20;;;;;;;19.04;62.66;101220.06;684096;28;22373;-66
2021/09/27 00:37:00;;;;;;;0.20;0.20;;;;;;;19.03;62.67;101221.16;682910;28;44519;-68
2021/09/27 00:37:21;;;;;;;0.20;0.20;;;;;;;19.03;62.72;101221.16;683233;28;24347;-68
2021/09/27 00:37:42;;;;;;;0.15;0.15;;;;;;;19.01;62.68;101218.63;683241;28;23372;-68
2021/09/27 00:38:06;;;;;;;0.20;0.20;;;;;;;19.00;62.77;101219.69;683784;28;1792;-68
2021/09/27 00:38:27;;;;;;;0.10;0.10;;;;;;;18.97;62.69;101220.13;681966;28;67530;-68
2021/09/27 00:38:48;;;;;;;0.20;0.20;;;;;;;18.97;62.31;101216.56;683511;28;22416;-68
2021/09/27 00:39:09;;;;;;;0.20;0.20;;;;;;;18.96;62.92;101223.09;682939;28;22417;-68
2021/09/27 00:39:31;;;;;;;0.20;0.20;;;;;;;18.95;62.91;101229.59;683022;28;23497;-68
2021/09/27 00:39:53;;;;;;;0.20;0.20;;;;;;;18.93;62.97;101220.78;682201;28;47549;-68
2021/09/27 00:40:18;;;;;;;0.20;0.20;;;;;;;18.89;62.90;101217.66;683079;28;23540;-68
2021/09/27 00:40:43;;;;;;;0.20;0.20;;;;;;;18.89;62.89;101221.22;680038;28;137717;-68
2021/09/27 00:41:07;;;;;;;0.13;0.13;;;;;;;18.89;62.95;101223.97;680251;28;111955;-68
2021/09/27 00:41:28;;;;;;;0.20;0.20;;;;;;;18.89;63.01;101223.97;680708;28;90406;-68
2021/09/27 00:41:50;;;;;;;0.20;0.20;;;;;;;18.89;63.08;101226.72;683783;28;20539;-68
2021/09/27 00:42:11;;;;;;;0.20;0.20;;;;;;;18.85;62.94;101222.72;681372;28;67593;-68
2021/09/27 00:42:33;;;;;;;0.20;0.20;;;;;;;18.87;63.03;101219.75;683720;28;23533;-68
2021/09/27 00:42:55;;;;;;;0.15;0.15;;;;;;;18.86;63.08;101218.94;683140;28;21529;-68
2021/09/27 00:43:16;;;;;;;0.20;0.20;;;;;;;18.84;63.15;101221.06;682520;28;45344;-68
2021/09/27 00:43:39;;;;;;;0.20;0.20;;;;;;;18.85;63.12;101219.16;683312;28;22097;-68
2021/09/27 00:44:00;;;;;;;0.20;0.20;;;;;;;18.85;63.16;101214.50;681300;28;91967;-68
2021/09/27 00:44:21;;;;;;;0.20;0.20;;;;;;;18.83;63.19;101218.50;683608;28;21542;-68
2021/09/27 00:44:42;;;;;;;0.20;0.20;;;;;;;18.82;63.08;101203.97;683630;28;22413;-68
2021/09/27 00:45:06;;;;;;;0.20;0.20;;;;;;;18.84;63.04;101215.59;682912;28;22420;-68
2021/09/27 00:45:29;;;;;;;0.10;0.10;;;;;;;18.83;63.23;101215.78;681886;28;67423;-68
2021/09/27 00:45:53;;;;;;;0.20;0.20;;;;;;;18.86;63.25;101216.19;680827;28;92033;-68
2021/09/27 00:46:19;;;;;;;0.20;0.20;;;;;;;18.85;63.15;101217.25;681457;28;69227;-68
2021/09/27 00:46:43;;;;;;;0.20;0.20;;;;;;;18.84;63.16;101220.16;679602;28;138673;-68
2021/09/27 00:47:05;;;;;;;0.20;0.20;;;;;;;18.84;63.13;101215.59;683673;28;23477;-68
2021/09/27 00:47:26;;;;;;;0.20;0.20;;;;;;;18.83;63.36;101221.25;682141;28;46330;-68
2021/09/27 00:47:48;;;;;;;0.20;0.20;;;;;;;18.85;63.19;101213.69;681828;28;45614;-68
2021/09/27 00:48:09;;;;;;;0.20;0.20;;;;;;;18.83;63.28;101215.78;681637;28;69812;-68
2021/09/27 00:48:31;;;;;;;0.20;0.20;;;;;;;18.84;63.39;101215.59;682812;28;46334;-70
2021/09/27 00:48:52;;;;;;;0.20;0.20;;;;;;;18.83;63.33;101213.03;682854;28;46269;-68
2021/09/27 00:49:15;;;;;;;0.20;0.20;;;;;;;18.83;63.35;101221.25;683911;28;936;-68
2021/09/27 00:49:36;;;;;;;0.20;0.20;;;;;;;18.82;63.27;101217.66;681997;28;45353;-68
2021/09/27 00:49:57;;;;;;;0.10;0.10;;;;;;;18.81;63.38;101220.59;682797;28;23500;-68
2021/09/27 00:50:22;;;;;;;0.20;0.20;;;;;;;18.80;63.35;101211.56;682736;28;47197;-68
2021/09/27 00:50:47;;;;;;;0.20;0.20;;;;;;;18.83;63.36;101210.31;679779;28;114479;-68
2021/09/27 00:51:11;;;;;;;0.20;0.20;;;;;;;18.81;63.34;101212.41;680236;28;115159;-68
2021/09/27 00:51:34;;;;;;;0.20;0.20;;;;;;;18.83;63.19;101213.03;681156;28;92169;-68
2021/09/27 00:51:56;;;;;;;0.20;0.20;;;;;;;18.82;63.33;101216.81;681636;28;69474;-68
2021/09/27 00:52:18;;;;;;;0.20;0.20;;;;;;;18.82;63.30;101214.91;682492;28;46412;-68
2021/09/27 00:52:39;;;;;;;0.20;0.20;;;;;;;18.84;63.40;101214.69;683385;28;20928;-68
2021/09/27 00:53:02;;;;;;;0.20;0.20;;;;;;;18.85;63.35;101210.94;683590;28;23496;-68
2021/09/27 00:53:28;;;;;;;0.20;0.20;;;;;;;18.82;63.29;101220.38;681864;28;68501;-68
2021/09/27 00:53:52;;;;;;;0.20;0.20;;;;;;;18.83;63.28;101213.03;679764;28;137721;-68
2021/09/27 00:54:16;;;;;;;0.17;0.17;;;;;;;18.84;63.23;101215.59;680981;28;90807;-68
2021/09/27 00:54:38;;;;;;;0.20;0.20;;;;;;;18.84;63.48;101215.59;681172;28;93674;-68
2021/09/27 00:54:59;;;;;;;0.20;0.20;;;;;;;18.83;63.35;101210.31;681888;28;46458;-68
2021/09/27 00:55:23;;;;;;;0.20;0.20;;;;;;;18.82;63.45;101220.38;682758;28;46341;-68
2021/09/27 00:55:44;;;;;;;0.20;0.20;;;;;;;18.80;63.26;101214.31;682512;28;39910;-68
2021/09/27 00:56:07;;;;;;;0.20;0.20;;;;;;;18.79;63.31;101218.09;683420;28;21550;-68
2021/09/27 00:56:31;;;;;;;0.20;0.20;;;;;;;18.78;63.37;101221.06;681546;28;69109;-68
2021/09/27 00:56:53;;;;;;;0.20;0.20;;;;;;;18.75;63.32;101211.41;681578;28;92302;-68
2021/09/27 00:57:18;;;;;;;0.20;0.20;;;;;;;18.75;63.47;101218.78;681638;28;68342;-68
2021/09/27 00:57:40;;;;;;;0.20;0.20;;;;;;;18.72;63.33;101215.41;678325;29;116101;-68
2021/09/27 00:58:01;;;;;;;0.20;0.20;;;;;;;18.75;63.46;101214.13;682176;28;44408;-68
2021/09/27 00:58:22;;;;;;;0.20;0.20;;;;;;;18.75;63.53;101213.31;683558;28;23410;-68
2021/09/27 00:58:46;;;;;;;0.20;0.20;;;;;;;18.73;63.53;101219.84;682662;28;46332;-68
2021/09/27 00:59:07;;;;;;;0.20;0.20;;;;;;;18.73;63.55;101213.53;681932;28;69427;-68
2021/09/27 00:59:30;;;;;;;0.20;0.20;;;;;;;18.73;63.55;101219.84;682652;28;44179;-68
2021/09/27 00:59:53;;;;;;;0.20;0.20;;;;;;;18.75;63.55;101216.03;682131;28;44320;-67
2021/09/27 01:00:19;;;;;;;0.20;0.20;;;;;;;18.72;63.57;101218.16;680145;28;92271;-68
2021/09/27 01:00:40;;;;;;;0.20;0.20;;;;;;;18.72;63.60;101217.31;679196;28;161730;-68
2021/09/27 01:01:02;;;;;;;0.20;0.20;;;;;;;18.72;63.57;101217.31;681943;28;67853;-68
2021/09/27 01:01:26;;;;;;;0.20;0.20;;;;;;;18.72;63.58;101214.56;683127;28;46364;-68
2021/09/27 01:01:48;;;;;;;0.20;0.20;;;;;;;18.72;63.59;101209.09;680686;28;90684;-68
2021/09/27 01:02:10;;;;;;;0.20;0.20;;;;;;;18.72;63.47;101211.84;683524;28;22393;-68
2021/09/27 01:02:32;;;;;;;0.20;0.20;;;;;;;18.72;63.57;101209.94;681811;28;69321;-68
2021/09/27 01:02:54;;;;;;;0.20;0.20;;;;;;;18.73;63.58;101214.34;683541;28;23284;-68
2021/09/27 01:03:15;;;;;;;0.20;0.20;;;;;;;18.71;63.47;101219.22;681920;28;44299;-68
2021/09/27 01:03:37;;;;;;;0.20;0.20;;;;;;;18.70;63.52;101208.50;683659;28;21570;-68
2021/09/27 01:03:59;;;;;;;0.20;0.20;;;;;;;18.70;63.57;101219.44;682569;28;46363;-68
2021/09/27 01:04:20;;;;;;;0.20;0.20;;;;;;;18.69;63.64;101210.38;682630;28;46352;-68
2021/09/27 01:04:41;;;;;;;0.20;0.20;;;;;;;18.70;63.74;101209.31;680309;28;21523;-68
2021/09/27 01:05:04;;;;;;;0.20;0.20;;;;;;;18.68;63.53;101208.72;680089;29;21494;-68
2021/09/27 01:05:26;;;;;;;0.20;0.20;;;;;;;18.67;63.65;101212.50;679463;28;69487;-68
2021/09/27 01:05:53;;;;;;;0.20;0.20;;;;;;;18.67;63.68;101215.22;679625;28;46369;-68
2021/09/27 01:06:26;;;;;;;0.20;0.20;;;;;;;18.68;63.81;101211.44;676346;29;136332;-68
2021/09/27 01:06:58;;;;;;;0.20;0.20;;;;;;;18.69;63.88;101210.38;679139;28;136174;-68
2021/09/27 01:07:27;;;;;;;0.20;0.20;;;;;;;18.67;63.87;101212.50;679515;28;137913;-68
2021/09/27 01:07:51;;;;;;;0.20;0.20;;;;;;;18.67;63.90;101212.50;679319;28;138638;-68
2021/09/27 01:08:19;;;;;;;0.20;0.20;;;;;;;18.67;63.74;101212.50;680973;28;92383;-68
2021/09/27 01:08:51;;;;;;;0.20;0.20;;;;;;;18.69;63.92;101213.09;678350;28;138161;-68
2021/09/27 01:09:20;;;;;;;0.20;0.20;;;;;;;18.70;63.97;101213.97;679336;28;137662;-68
2021/09/27 01:09:58;;;;;;;0.20;0.20;;;;;;;18.69;63.88;101215.00;679554;28;138219;-68
2021/09/27 01:10:40;;;;;;;0.20;0.20;;;;;;;18.70;63.71;101211.22;678561;28;157199;-68
2021/09/27 01:11:20;;;;;;;0.20;0.20;;;;;;;18.70;63.80;101214.78;678842;28;156470;-68
2021/09/27 01:12:07;;;;;;;0.20;0.20;;;;;;;18.71;63.83;101211.00;678741;28;136289;-68
2021/09/27 01:12:38;;;;;;;0.20;0.20;;;;;;;18.72;63.83;101217.31;668621;29;137835;-68
2021/09/27 01:13:10;;;;;;;0.20;0.20;;;;;;;18.71;63.55;101215.63;679638;28;137645;-68
2021/09/27 01:13:42;;;;;;;0.20;0.20;;;;;;;18.68;63.77;101208.72;679726;28;137668;-68
2021/09/27 01:14:14;;;;;;;0.20;0.20;;;;;;;18.68;63.89;101211.44;679680;28;137501;-68
2021/09/27 01:14:52;;;;;;;0.20;0.20;;;;;;;18.68;63.79;101208.72;679308;28;136074;-68
2021/09/27 01:15:20;;;;;;;0.20;0.20;;;;;;;18.68;63.84;101216.06;678613;28;157263;-68
2021/09/27 01:15:46;;;;;;;0.20;0.20;;;;;;;18.67;63.92;101209.75;679118;28;138042;-68
2021/09/27 01:16:14;;;;;;;0.20;0.20;;;;;;;18.64;63.86;101206.63;679516;28;138374;-67
2021/09/27 01:16:43;;;;;;;0.20;0.20;;;;;;;18.62;63.84;101206.84;677748;28;162231;-68
2021/09/27 01:17:14;;;;;;;0.20;0.20;;;;;;;18.65;63.96;101211.88;679505;28;137706;-68
2021/09/27 01:17:44;;;;;;;0.20;0.20;;;;;;;18.62;63.81;101206.84;679580;28;136926;-68
2021/09/27 01:18:12;;;;;;;0.20;0.20;;;;;;;18.61;63.90;101216.09;679265;28;137700;-68
2021/09/27 01:18:47;;;;;;;0.20;0.20;;;;;;;18.62;64.10;101208.72;679526;28;137644;-68
2021/09/27 01:19:42;;;;;;;0.20;0.20;;;;;;;18.63;64.20;101205.78;678923;29;114577;-68
2021/09/27 01:20:45;;;;;;;0.20;0.20;;;;;;;18.66;64.31;101210.81;678730;28;135957;-68
2021/09/27 01:21:25;;;;;;;0.20;0.20;;;;;;;18.65;64.20;101211.03;678479;28;157093;-68
2021/09/27 01:21:50;;;;;;;0.20;0.20;;;;;;;18.64;64.21;101207.47;678401;28;160646;-68
2021/09/27 01:22:17;;;;;;;0.20;0.20;;;;;;;18.65;64.12;101211.88;680075;28;115607;-68
2021/09/27 01:22:50;;;;;;;0.20;0.20;;;;;;;18.65;64.17;101213.75;679372;28;136446;-68
2021/09/27 01:23:50;;;;;;;0.20;0.20;;;;;;;18.65;64.28;101211.03;679261;28;137604;-68
2021/09/27 01:24:38;;;;;;;0.20;0.20;;;;;;;18.63;64.21;101213.97;678323;28;161446;-68
2021/09/27 01:25:15;;;;;;;0.20;0.20;;;;;;;18.63;64.34;101204.94;678220;28;158859;-68
2021/09/27 01:25:50;;;;;;;0.20;0.20;;;;;;;18.63;64.35;101208.50;679300;28;137691;-68
2021/09/27 01:26:35;;;;;;;0.20;0.20;;;;;;;18.64;64.29;101207.47;678442;28;157168;-68
2021/09/27 01:27:20;;;;;;;0.30;0.30;;;;;;;18.64;64.15;101202.00;679101;28;137588;-67
2021/09/27 01:28:12;;;;;;;0.20;0.20;;;;;;;18.63;64.03;101207.69;678979;28;138648;-67
2021/09/27 01:29:09;;;;;;;0.20;0.20;;;;;;;18.63;64.24;101208.50;678214;28;161153;-67
2021/09/27 01:29:48;;;;;;;0.20;0.20;;;;;;;18.63;64.09;101203.03;679047;28;137117;-67
2021/09/27 01:30:18;;;;;;;0.20;0.20;;;;;;;18.62;64.35;101198.66;678061;28;138297;-67
2021/09/27 01:30:53;;;;;;;0.20;0.20;;;;;;;18.61;64.33;101201.59;678467;28;160821;-67
2021/09/27 01:31:53;;;;;;;0.20;0.20;;;;;;;18.60;64.29;101202.66;678317;28;158214;-67
2021/09/27 01:32:30;;;;;;;0.20;0.20;;;;;;;18.61;64.38;101205.16;678444;28;158885;-67
2021/09/27 01:32:53;;;;;;;0.20;0.20;;;;;;;18.61;64.28;101198.88;679611;28;137526;-67
2021/09/27 01:33:17;;;;;;;0.20;0.20;;;;;;;18.60;64.29;101202.66;681011;29;46482;-67
2021/09/27 01:33:44;;;;;;;0.20;0.20;;;;;;;18.59;64.39;101198.22;679852;28;112364;-68
2021/09/27 01:34:09;;;;;;;0.20;0.20;;;;;;;18.58;64.33;101197.41;679305;28;138652;-67
2021/09/27 01:34:34;;;;;;;0.20;0.20;;;;;;;18.60;64.46;101199.91;679649;28;114351;-67
2021/09/27 01:35:05;;;;;;;0.20;0.20;;;;;;;18.61;64.34;101198.88;679846;28;115011;-68
2021/09/27 01:35:33;;;;;;;0.20;0.20;;;;;;;18.60;64.52;101197.19;678176;28;137958;-67
2021/09/27 01:36:03;;;;;;;0.20;0.20;;;;;;;18.59;64.53;101190.88;679259;28;138204;-67
2021/09/27 01:36:29;;;;;;;0.20;0.20;;;;;;;18.61;64.54;101205.16;679344;28;107411;-68
2021/09/27 01:36:56;;;;;;;0.20;0.20;;;;;;;18.61;64.51;101199.69;679414;28;138170;-67
2021/09/27 01:37:21;;;;;;;0.15;0.15;;;;;;;18.58;64.48;101194.66;678933;28;138880;-68
2021/09/27 01:37:52;;;;;;;0.20;0.20;;;;;;;18.62;64.60;101206.00;680517;28;92351;-67
2021/09/27 01:38:23;;;;;;;0.20;0.20;;;;;;;18.64;64.46;101198.44;678957;28;137709;-67
2021/09/27 01:38:47;;;;;;;0.20;0.20;;;;;;;18.65;64.62;101202.81;679655;28;136181;-68
2021/09/27 01:39:11;;;;;;;0.20;0.20;;;;;;;18.66;64.65;101202.59;679702;28;116032;-67
2021/09/27 01:39:36;;;;;;;0.20;0.20;;;;;;;18.67;64.57;101201.56;681028;28;92485;-68
2021/09/27 01:40:06;;;;;;;0.13;0.13;;;;;;;18.67;64.55;101203.47;679262;28;136326;-67
2021/09/27 01:40:33;;;;;;;0.20;0.20;;;;;;;18.68;64.45;101208.72;678697;28;137408;-68
2021/09/27 01:41:04;;;;;;;0.10;0.10;;;;;;;18.68;64.47;101194.19;679226;28;135877;-68
2021/09/27 01:41:33;;;;;;;0.20;0.20;;;;;;;18.68;64.55;101196.91;678181;28;161500;-68
2021/09/27 01:41:59;;;;;;;0.20;0.20;;;;;;;18.69;64.73;101198.59;679114;28;138507;-67
2021/09/27 01:42:27;;;;;;;0.20;0.20;;;;;;;18.68;64.42;101194.19;679473;28;138752;-68
2021/09/27 01:42:54;;;;;;;0.20;0.20;;;;;;;18.71;64.49;101201.94;679627;28;138187;-68
2021/09/27 01:43:20;;;;;;;0.20;0.20;;;;;;;18.72;64.47;101199.00;679153;28;138909;-67
2021/09/27 01:43:45;;;;;;;0.20;0.20;;;;;;;18.73;64.46;101205.31;676555;28;136606;-68
2021/09/27 01:44:13;;;;;;;0.20;0.20;;;;;;;18.75;64.43;101199.63;676892;28;138171;-68
2021/09/27 01:44:40;;;;;;;0.20;0.20;;;;;;;18.75;64.33;101196.91;675723;28;161074;-68
2021/09/27 01:45:05;;;;;;;0.20;0.20;;;;;;;18.76;64.46;101204.88;676078;28;136352;-68
2021/09/27 01:45:30;;;;;;;0.20;0.20;;;;;;;18.77;64.40;101205.72;676976;28;115418;-68
2021/09/27 01:45:57;;;;;;;0.20;0.20;;;;;;;18.77;64.42;101197.50;678730;28;138886;-68
2021/09/27 01:46:25;;;;;;;0.20;0.20;;;;;;;18.78;64.45;101194.53;679386;28;138877;-68
2021/09/27 01:46:48;;;;;;;0.20;0.20;;;;;;;18.79;64.41;101203.59;679271;28;138040;-67
2021/09/27 01:47:13;;;;;;;0.20;0.20;;;;;;;18.75;64.42;101203.19;682876;28;33759;-67
2021/09/27 01:47:41;;;;;;;0.20;0.20;;;;;;;18.76;64.43;101204.03;680661;28;92373;-68
2021/09/27 01:48:05;;;;;;;0.20;0.20;;;;;;;18.76;64.50;101207.63;679373;28;136388;-68
2021/09/27 01:48:31;;;;;;;0.20;0.20;;;;;;;18.78;64.59;101207.38;679966;28;115415;-67
2021/09/27 01:48:59;;;;;;;0.20;0.20;;;;;;;18.78;64.37;101201.91;679288;28;137912;-68
2021/09/27 01:49:22;;;;;;;0.20;0.20;;;;;;;18.78;64.45;101207.38;678994;28;137941;-68
2021/09/27 01:49:47;;;;;;;0.20;0.20;;;;;;;18.77;64.55;101209.28;681451;28;69328;-68
2021/09/27 01:50:10;;;;;;;0.20;0.20;;;;;;;18.76;64.47;101207.63;679529;28;116339;-68
2021/09/27 01:50:37;;;;;;;0.20;0.20;;;;;;;18.75;64.57;101211.41;681761;28;69486;-68
2021/09/27 01:51:05;;;;;;;0.20;0.20;;;;;;;18.77;64.43;101212.00;678624;28;136451;-68
2021/09/27 01:51:31;;;;;;;0.20;0.20;;;;;;;18.77;64.59;101211.19;679544;28;137933;-68
2021/09/27 01:51:57;;;;;;;0.20;0.20;;;;;;;18.77;64.56;101220.22;679698;28;138208;-68
2021/09/27 01:52:22;;;;;;;0.20;0.20;;;;;;;18.79;64.57;101217.25;679251;28;138070;-68
2021/09/27 01:52:47;;;;;;;0.20;0.20;;;;;;;18.78;64.58;101216.44;680316;28;115336;-68
2021/09/27 01:53:11;;;;;;;0.22;0.22;;;;;;;18.76;64.42;101210.34;680212;28;115336;-67
2021/09/27 01:53:37;;;;;;;0.20;0.20;;;;;;;18.78;64.40;101216.44;681766;28;67246;-67
2021/09/27 01:54:14;;;;;;;0.20;0.20;;;;;;;18.79;64.54;101212.63;679263;28;137942;-68
2021/09/27 01:54:38;;;;;;;0.20;0.20;;;;;;;18.79;64.58;101214.53;678753;28;160461;-67
2021/09/27 01:55:04;;;;;;;0.20;0.20;;;;;;;18.79;64.40;101222.75;680412;28;90391;-68
2021/09/27 01:55:30;;;;;;;0.15;0.15;;;;;;;18.77;64.40;101222.97;678862;28;138257;-68
2021/09/27 01:55:56;;;;;;;0.20;0.20;;;;;;;18.78;64.58;101221.06;678082;28;159795;-67
2021/09/27 01:56:22;;;;;;;0.20;0.20;;;;;;;18.78;64.60;101223.78;679721;28;139093;-67
2021/09/27 01:56:50;;;;;;;0.20;0.20;;;;;;;18.77;64.41;101225.69;679585;28;138629;-67
2021/09/27 01:57:16;;;;;;;0.20;0.20;;;;;;;18.77;64.50;101225.69;676493;29;136132;-67
2021/09/27 01:57:43;;;;;;;0.20;0.20;;;;;;;18.78;64.68;101227.38;676835;29;116224;-68
2021/09/27 01:58:06;;;;;;;0.20;0.20;;;;;;;18.80;64.65;101229.91;676284;29;137739;-68
2021/09/27 01:58:36;;;;;;;0.20;0.20;;;;;;;18.81;64.46;101226.09;678354;28;68514;-68
2021/09/27 01:59:03;;;;;;;0.20;0.20;;;;;;;18.79;64.59;101222.75;675987;28;160412;-67
2021/09/27 01:59:29;;;;;;;0.20;0.20;;;;;;;18.81;64.62;101235.16;679467;28;138098;-67